Terminal Aerodrome Forecast
Issued by NWS

Home | Current Version | Previous Version | Text Only | Print | Product List | Glossary On
Versions: 1 2 3 4 5 6 7 8 9 10 11 12
000
FTUS45 KTFX 050520
TAFHLN
TAF
KHLN 050520Z 0506/0606 28007KT P6SM SCT090 BKN150
     FM051100 33008KT P6SM VCSH SCT050 BKN080
     FM051800 34008KT P6SM SCT040 BKN070 PROB30 0521/0524 -TSRA
      BKN040CB
     FM060500 28005KT P6SM BKN120=

USA.gov is the U.S. government's official web portal to all federal, state and local government web resources and services.